Mill Point, West Virginia
Current Conditions -  °F | °C
As of 10:15 AM on Monday 22 Dec 2014 (Local Time) from KLWB Reporting Station
Drizzle Drizzle  
Wind Chill: 32°   Ceiling: 1700
Heat Index: 37°   Visibility: 7mi
Dew Point: 30°   Wind: 6mph
Humidity: 76%   Direction: 90°E
Pressure: 30.14"   Gusts: NA
Location:  38.1931°N, 80.2861°W
Report Text: KLWB 221515Z AUTO 09005KT 7SM -DZ OVC017 03/M01 A3014 RMK AO2 T00261012
Loading
Personal Weather Stations






























Interactive Weather Map New forecast layout! Learn more

10-Day Weather Forecast

Advertisements
Track Severe Weather on mobile